createdAt,value
2023-05-08T07:42:58.011Z,99418.1
2023-05-08T07:48:31.871Z,99420.3
2023-05-08T07:54:09.117Z,99422.1
2023-05-08T07:59:55.477Z,99432.4
2023-05-08T08:06:02.062Z,99431.3
2023-05-08T08:12:05.978Z,99434.1
2023-05-08T08:17:42.190Z,99431
2023-05-08T08:23:19.123Z,99430.6
2023-05-08T08:28:57.909Z,99422.7
2023-05-08T08:34:34.758Z,99431.5
2023-05-08T08:40:11.782Z,99434
2023-05-08T08:45:52.284Z,99431.3
2023-05-08T08:51:50.364Z,99439.5
2023-05-08T08:57:25.064Z,99435.7
2023-05-08T09:03:05.940Z,99429.8
2023-05-08T09:08:42.470Z,99426
2023-05-08T09:14:19.770Z,99439.8
2023-05-08T09:19:55.096Z,99438.3
2023-05-08T09:25:31.427Z,99425.9
2023-05-08T09:31:11.318Z,99416.7
2023-05-08T09:36:56.800Z,99405.9
2023-05-08T09:43:01.132Z,99412.8
2023-05-08T09:48:38.036Z,99415.8
2023-05-08T09:54:16.144Z,99412.9
2023-05-08T10:00:17.983Z,99407.7
2023-05-08T10:06:03.757Z,99391.5
2023-05-08T10:11:39.418Z,99387.9
2023-05-08T10:17:23.851Z,99383.7
2023-05-08T10:23:28.984Z,99371.9
2023-05-08T10:29:30.701Z,99360.9
2023-05-08T10:35:06.982Z,99348.3
2023-05-08T10:41:01.676Z,99329.7
2023-05-08T10:47:02.821Z,99312.7
2023-05-08T10:52:42.133Z,99301
2023-05-08T10:58:17.641Z,99290.2
2023-05-08T11:03:53.680Z,99287.4
2023-05-08T11:09:30.260Z,99273.1
2023-05-08T11:15:05.782Z,99267.1
2023-05-08T11:20:42.499Z,99256.3
2023-05-08T11:26:18.309Z,99254.6
2023-05-08T11:31:57.447Z,99259.3
2023-05-08T11:37:39.333Z,99270.9
2023-05-08T11:43:19.741Z,99264.3
2023-05-08T11:48:55.348Z,99249.8
2023-05-08T11:54:39.160Z,99243.3
2023-05-08T12:00:16.549Z,99231.9
2023-05-08T12:06:32.224Z,99230
2023-05-08T12:12:30.334Z,99233.2
2023-05-08T12:18:34.432Z,99222.8
2023-05-08T12:24:24.932Z,99228.7
2023-05-08T12:30:15.838Z,99232.3
2023-05-08T12:35:55.988Z,99220.3
2023-05-08T12:41:34.372Z,99222.6
2023-05-08T12:47:11.379Z,99235.1
2023-05-08T12:52:50.668Z,99242.8
2023-05-08T12:58:31.381Z,99242.4
2023-05-08T13:04:33.612Z,99245.5
2023-05-08T13:10:11.047Z,99250.7
2023-05-08T13:15:48.045Z,99249.6
2023-05-08T13:22:01.225Z,99253.9
2023-05-08T13:27:37.621Z,99256
2023-05-08T13:33:17.633Z,99239.1
2023-05-08T13:38:53.340Z,99231.7
2023-05-08T13:44:33.524Z,99218.4
2023-05-08T13:50:11.361Z,99219.8
2023-05-08T13:55:47.370Z,99222.6
2023-05-08T14:01:27.935Z,99212.7
2023-05-08T14:07:04.928Z,99224.7
2023-05-08T14:12:40.869Z,99220.4
2023-05-08T14:18:16.781Z,99211.4
2023-05-08T14:24:01.982Z,99207.3
2023-05-08T14:29:40.297Z,99215.1
2023-05-08T14:35:43.938Z,99194.2
2023-05-08T14:41:20.509Z,99180.7
2023-05-08T14:47:09.777Z,99171
2023-05-08T14:53:00.381Z,99182.1
2023-05-08T14:58:58.642Z,99180.5
2023-05-08T15:05:30.429Z,99192.2
2023-05-08T15:11:06.843Z,99185.3
2023-05-08T15:16:44.098Z,99179.2
2023-05-08T15:22:21.022Z,99173.5
2023-05-08T15:27:59.810Z,99178.4
2023-05-08T15:33:36.704Z,99185.2
2023-05-08T15:39:12.525Z,99198.2
2023-05-08T15:44:55.749Z,99199
2023-05-08T15:50:35.589Z,99204.2
2023-05-08T15:56:14.680Z,99210.2
2023-05-08T16:01:54.740Z,99207
2023-05-08T16:07:33.224Z,99202.4
2023-05-08T16:13:09.482Z,99209.5
2023-05-08T16:18:59.778Z,99196.6
2023-05-08T16:24:55.650Z,99188.8
2023-05-08T16:30:31.043Z,99177.5
2023-05-08T16:36:07.677Z,99176.2
2023-05-08T16:41:46.282Z,99163
2023-05-08T16:47:36.521Z,99176.7
2023-05-08T16:53:13.124Z,99174.8
2023-05-08T16:58:49.032Z,99172.8
2023-05-08T17:04:24.424Z,99162.8
2023-05-08T17:10:27.372Z,99174
2023-05-08T17:16:23.390Z,99179
2023-05-08T17:22:17.068Z,99179
2023-05-08T17:27:57.022Z,99188.3
2023-05-08T17:33:53.142Z,99189.6
2023-05-08T17:39:39.658Z,99187
2023-05-08T17:45:16.167Z,99190.3
2023-05-08T17:50:52.735Z,99181.5
2023-05-08T17:56:34.550Z,99176.4
2023-05-08T18:02:14.619Z,99167
2023-05-08T18:07:51.134Z,99183.1
2023-05-08T18:13:27.112Z,99180.2
2023-05-08T18:19:04.947Z,99171.2
2023-05-08T18:24:41.168Z,99156.9
2023-05-08T18:30:16.845Z,99148
2023-05-08T18:35:53.798Z,99139.3
2023-05-08T18:41:32.986Z,99128.6
2023-05-08T18:47:20.606Z,99119.5
2023-05-08T18:53:38.271Z,99129.2
2023-05-08T18:59:23.324Z,99110.9
2023-05-08T19:05:22.156Z,99108.6
2023-05-08T19:11:07.386Z,99113.2
2023-05-08T19:16:43.640Z,99119.8
2023-05-08T19:22:26.181Z,99121.2
2023-05-08T19:28:01.796Z,99127.7
2023-05-08T19:33:38.368Z,99146
2023-05-08T19:39:15.955Z,99149.6
2023-05-08T19:45:00.235Z,99161.5
2023-05-08T19:50:36.551Z,99168.6
2023-05-08T19:56:16.183Z,99173.1
2023-05-08T20:01:56.106Z,99185.7
2023-05-08T20:07:41.639Z,99174.9
2023-05-08T20:13:20.142Z,99161
2023-05-08T20:19:39.032Z,99146
2023-05-08T20:25:45.021Z,99150.8
2023-05-08T20:31:21.547Z,99167.7
2023-05-08T20:36:57.664Z,99161.7
2023-05-08T20:42:34.539Z,99164.3
2023-05-08T20:48:10.023Z,99165.8
2023-05-08T20:53:46.209Z,99154.9
2023-05-08T20:59:22.642Z,99164.3
